createdAt,value
2018-06-10T00:00:30.565Z,16.37
2018-06-10T00:02:58.013Z,16.28
2018-06-10T00:05:25.557Z,16.37
2018-06-10T00:07:52.954Z,16.33
2018-06-10T00:10:20.321Z,16.35
2018-06-10T00:12:47.765Z,16.24
2018-06-10T00:15:15.900Z,16.38
2018-06-10T00:17:43.262Z,16.36
2018-06-10T00:20:10.693Z,16.43
2018-06-10T00:22:38.123Z,16.37
2018-06-10T00:25:06.031Z,16.21
2018-06-10T00:27:34.256Z,16.25
2018-06-10T00:30:01.676Z,16.14
2018-06-10T00:32:29.037Z,16.21
2018-06-10T00:34:56.543Z,16.19
2018-06-10T00:37:23.996Z,15.98
2018-06-10T00:39:51.610Z,16.04
2018-06-10T00:42:19.330Z,16.11
2018-06-10T00:44:46.831Z,15.93
2018-06-10T00:47:14.192Z,16.07
2018-06-10T00:49:41.820Z,16.09
2018-06-10T00:52:09.345Z,16.03
2018-06-10T00:54:37.202Z,16.04
2018-06-10T00:57:04.612Z,16.03
2018-06-10T00:59:32.133Z,16.01
2018-06-10T01:01:59.761Z,15.79
2018-06-10T01:04:27.191Z,16.01
2018-06-10T01:06:54.586Z,16.23
2018-06-10T01:09:22.197Z,16.29
2018-06-10T01:11:49.745Z,16.02
2018-06-10T01:14:17.165Z,16.05
2018-06-10T01:16:44.602Z,16.18
2018-06-10T01:19:12.079Z,16.13
2018-06-10T01:21:39.592Z,16.25
2018-06-10T01:24:06.977Z,16.20
2018-06-10T01:26:40.039Z,16.28
2018-06-10T01:29:07.457Z,16.11
2018-06-10T01:31:34.874Z,16.22
2018-06-10T01:34:02.361Z,16.14
2018-06-10T01:36:29.765Z,16.14
2018-06-10T01:38:57.309Z,16.13
2018-06-10T01:41:24.664Z,15.97
2018-06-10T01:43:52.082Z,16.02
2018-06-10T01:46:19.529Z,16.01
2018-06-10T01:48:46.979Z,15.96
2018-06-10T01:51:14.532Z,16.02
2018-06-10T01:53:42.039Z,16.01
2018-06-10T01:56:09.445Z,15.97
2018-06-10T01:58:36.899Z,16.06
2018-06-10T02:01:04.295Z,15.96
2018-06-10T02:03:31.693Z,16.04
2018-06-10T02:05:59.135Z,16.02
2018-06-10T02:08:26.517Z,16.16
2018-06-10T02:10:53.971Z,16.20
2018-06-10T02:13:21.342Z,16.21
2018-06-10T02:15:48.778Z,16.41
2018-06-10T02:18:16.211Z,16.14
2018-06-10T02:20:44.206Z,16.13
2018-06-10T02:23:11.578Z,16.20
2018-06-10T02:25:38.933Z,16.16
2018-06-10T02:28:06.352Z,16.01
2018-06-10T02:30:33.736Z,16.33
2018-06-10T02:33:02.075Z,16.21
2018-06-10T02:35:29.571Z,16.26
2018-06-10T02:37:57.109Z,16.13
2018-06-10T02:40:24.475Z,16.06
2018-06-10T02:42:51.990Z,16.10
2018-06-10T02:45:19.386Z,16.01
2018-06-10T02:47:46.752Z,16.15
2018-06-10T02:50:14.169Z,16.02
2018-06-10T02:52:42.356Z,16.08
2018-06-10T02:55:10.596Z,15.92
2018-06-10T02:57:37.993Z,15.83
2018-06-10T03:00:05.604Z,15.86
2018-06-10T03:02:33.013Z,15.98
2018-06-10T03:05:00.433Z,15.91
2018-06-10T03:07:27.998Z,15.92
2018-06-10T03:09:55.365Z,15.95
2018-06-10T03:12:22.815Z,15.97
2018-06-10T03:14:50.183Z,16.00
2018-06-10T03:17:17.604Z,15.98
2018-06-10T03:19:45.007Z,15.94
2018-06-10T03:22:13.039Z,15.93
2018-06-10T03:24:40.573Z,15.95
2018-06-10T03:27:07.992Z,15.87
2018-06-10T03:29:35.386Z,15.95
2018-06-10T03:32:02.833Z,15.85
2018-06-10T03:34:30.213Z,15.86
2018-06-10T03:36:57.614Z,16.06
2018-06-10T03:39:25.045Z,16.13
2018-06-10T03:41:52.426Z,16.06
2018-06-10T03:44:19.944Z,16.06
2018-06-10T03:46:47.305Z,16.09
2018-06-10T03:49:14.769Z,16.01
2018-06-10T03:51:42.173Z,16.06
2018-06-10T03:54:09.561Z,16.11
2018-06-10T03:56:36.931Z,16.00
2018-06-10T03:59:05.092Z,16.13
2018-06-10T04:01:32.484Z,16.11
2018-06-10T04:04:00.065Z,16.23
2018-06-10T04:06:27.425Z,16.12
2018-06-10T04:08:54.901Z,16.21
2018-06-10T04:11:22.279Z,16.11
2018-06-10T04:13:49.643Z,16.21
2018-06-10T04:16:17.089Z,16.18
2018-06-10T04:18:45.151Z,16.30
2018-06-10T04:21:12.564Z,16.43
2018-06-10T04:23:40.114Z,16.41
2018-06-10T04:26:07.534Z,16.44
2018-06-10T04:28:35.018Z,16.30
2018-06-10T04:31:02.407Z,16.14
2018-06-10T04:33:29.775Z,16.35
2018-06-10T04:35:57.166Z,16.41
2018-06-10T04:38:24.514Z,16.31
2018-06-10T04:40:52.020Z,16.41
2018-06-10T04:43:19.384Z,16.52
2018-06-10T04:45:46.870Z,16.23
2018-06-10T04:48:14.266Z,16.27
2018-06-10T04:50:41.717Z,16.33
2018-06-10T17:41:39.804Z,19.23
2018-06-10T17:44:07.509Z,19.47
2018-06-10T17:46:34.965Z,19.37
2018-06-10T17:49:02.417Z,19.45
2018-06-10T17:51:29.843Z,19.39
2018-06-10T17:53:57.366Z,19.12
2018-06-10T17:56:24.777Z,19.14
2018-06-10T17:58:52.281Z,19.31
2018-06-10T18:01:19.730Z,19.33
2018-06-10T18:03:47.205Z,19.16
2018-06-10T18:06:14.816Z,19.28
2018-06-10T18:08:42.825Z,19.16
2018-06-10T18:11:10.320Z,19.08
2018-06-10T18:13:37.944Z,19.24
2018-06-10T18:16:06.380Z,19.06
2018-06-10T18:18:33.818Z,18.97
2018-06-10T18:21:01.889Z,19.11
2018-06-10T18:23:29.343Z,19.16
2018-06-10T18:25:56.917Z,18.83
2018-06-10T18:28:24.391Z,18.74
2018-06-10T18:30:51.853Z,18.98
2018-06-10T18:33:19.344Z,18.71
2018-06-10T18:35:46.848Z,18.74
2018-06-10T18:38:14.292Z,18.71
2018-06-10T18:40:41.868Z,18.43
2018-06-10T18:43:09.898Z,18.48
2018-06-10T18:45:37.309Z,18.66
2018-06-10T18:48:05.055Z,18.64
2018-06-10T18:50:32.535Z,18.50
2018-06-10T18:53:00.191Z,18.56
2018-06-10T18:55:27.636Z,18.44
2018-06-10T18:57:56.419Z,18.56
2018-06-10T19:00:23.861Z,18.55
2018-06-10T19:02:51.354Z,18.49
2018-06-10T19:05:18.824Z,18.38
2018-06-10T19:07:46.396Z,18.48
2018-06-10T19:10:13.950Z,18.27
2018-06-10T19:12:41.630Z,18.19
2018-06-10T19:15:09.659Z,18.42
2018-06-10T19:17:37.056Z,18.24
2018-06-10T19:20:04.748Z,18.12
2018-06-10T19:22:32.299Z,18.24
2018-06-10T19:24:59.763Z,18.06
2018-06-10T19:27:27.844Z,18.04
2018-06-10T19:29:55.394Z,17.92
2018-06-10T19:32:22.936Z,17.90
2018-06-10T19:34:50.387Z,17.88
2018-06-10T19:37:17.950Z,17.71
2018-06-10T19:39:45.467Z,17.63
2018-06-10T19:42:13.003Z,17.60
2018-06-10T19:44:40.982Z,17.70
2018-06-10T19:47:08.501Z,17.61
2018-06-10T19:49:35.977Z,17.67
2018-06-10T19:52:03.470Z,17.58
2018-06-10T19:54:30.960Z,17.50
2018-06-10T19:56:58.518Z,17.52
2018-06-10T19:59:26.222Z,17.29
2018-06-10T20:01:53.646Z,17.20
2018-06-10T20:04:21.040Z,17.29
2018-06-10T20:06:48.558Z,17.24
2018-06-10T20:09:16.115Z,17.38
2018-06-10T20:11:43.568Z,17.27
2018-06-10T20:14:11.065Z,17.16
2018-06-10T20:16:38.522Z,17.23
2018-06-10T20:19:05.969Z,17.06
2018-06-10T20:21:33.603Z,17.05
2018-06-10T20:24:01.880Z,17.04
2018-06-10T20:26:29.369Z,17.05
2018-06-10T20:28:56.824Z,17.06
2018-06-10T20:31:24.287Z,17.08
2018-06-10T20:33:51.889Z,17.09
2018-06-10T20:36:20.039Z,16.86
2018-06-10T20:38:47.467Z,16.91
2018-06-10T20:41:14.993Z,17.05
2018-06-10T20:43:42.578Z,16.88
2018-06-10T20:46:10.162Z,16.96
2018-06-10T20:48:37.741Z,16.96
2018-06-10T20:51:05.144Z,16.95
2018-06-10T20:53:32.667Z,16.87
2018-06-10T20:56:00.279Z,16.77
2018-06-10T20:58:27.741Z,16.69
2018-06-10T21:00:55.290Z,16.73
2018-06-10T21:03:22.734Z,16.68
2018-06-10T21:05:50.307Z,16.75
2018-06-10T21:08:17.838Z,16.61
2018-06-10T21:10:45.308Z,16.54
2018-06-10T21:13:12.768Z,16.59
2018-06-10T21:15:40.261Z,16.59
2018-06-10T21:18:07.697Z,16.50
2018-06-10T21:20:35.179Z,16.42
2018-06-10T21:23:02.690Z,16.43
2018-06-10T21:25:30.337Z,16.37
2018-06-10T21:27:57.751Z,16.28
2018-06-10T21:30:25.219Z,16.43
2018-06-10T21:32:52.711Z,16.43
2018-06-10T21:35:20.122Z,16.30
2018-06-10T21:37:47.730Z,16.15
2018-06-10T21:40:15.358Z,16.27
2018-06-10T21:42:42.859Z,16.08
2018-06-10T21:45:10.916Z,16.16
2018-06-10T21:47:38.399Z,16.18
2018-06-10T21:50:06.024Z,16.14
2018-06-10T21:52:33.550Z,16.16
2018-06-10T21:55:01.003Z,16.15
2018-06-10T21:57:28.525Z,16.12
2018-06-10T21:59:56.065Z,16.03
2018-06-10T22:02:23.645Z,15.90
2018-06-10T22:04:51.027Z,15.98
2018-06-10T22:07:18.527Z,15.80
2018-06-10T22:09:46.153Z,15.80
2018-06-10T22:12:13.560Z,15.80
2018-06-10T22:14:40.957Z,15.74
2018-06-10T22:17:08.375Z,15.72
2018-06-10T22:19:35.933Z,15.78
2018-06-10T22:22:03.745Z,15.80
2018-06-10T22:24:31.194Z,15.53
2018-06-10T22:26:58.640Z,15.71
2018-06-10T22:29:26.228Z,15.60
2018-06-10T22:31:53.645Z,15.58
2018-06-10T22:34:21.053Z,15.61
2018-06-10T22:36:48.614Z,15.55
2018-06-10T22:39:16.213Z,15.56
2018-06-10T22:41:43.906Z,15.52
2018-06-10T22:44:11.336Z,15.47
2018-06-10T22:46:38.901Z,15.44
2018-06-10T22:49:06.371Z,15.47
2018-06-10T22:51:33.985Z,15.47
2018-06-10T22:54:12.645Z,15.36
2018-06-10T22:56:40.053Z,15.41
2018-06-10T22:59:07.451Z,15.34
2018-06-10T23:01:34.913Z,15.40
2018-06-10T23:04:02.337Z,15.22
2018-06-10T23:06:29.951Z,15.16
2018-06-10T23:08:57.428Z,15.25
2018-06-10T23:11:25.550Z,15.12
2018-06-10T23:13:52.967Z,15.16
2018-06-10T23:16:20.473Z,15.18
2018-06-10T23:18:47.912Z,15.29
2018-06-10T23:21:15.482Z,15.27
2018-06-10T23:23:43.916Z,15.20
2018-06-10T23:26:11.316Z,15.27
2018-06-10T23:28:38.754Z,15.17
2018-06-10T23:31:06.314Z,15.19
2018-06-10T23:33:33.857Z,15.12
2018-06-10T23:36:01.339Z,15.07
2018-06-10T23:38:28.794Z,15.08
2018-06-10T23:40:56.224Z,15.04
2018-06-10T23:43:23.790Z,15.05
2018-06-10T23:45:51.321Z,14.99
2018-06-10T23:48:18.677Z,14.95
2018-06-10T23:50:46.228Z,14.96
2018-06-10T23:53:13.720Z,14.92
2018-06-10T23:55:41.101Z,14.92
2018-06-10T23:58:08.628Z,14.74
